sensor_id;sensor_type;location;lat;lon;timestamp;pressure;altitude;pressure_sealevel;temperature
20848;BMP180;10584;50.854;12.902;2023-01-06T00:00:35;98525.00;;;6.50
20848;BMP180;10584;50.854;12.902;2023-01-06T00:06:02;98522.00;;;6.40
20848;BMP180;10584;50.854;12.902;2023-01-06T00:11:24;98509.00;;;6.30
20848;BMP180;10584;50.854;12.902;2023-01-06T00:16:46;98521.00;;;6.20
20848;BMP180;10584;50.854;12.902;2023-01-06T00:22:08;98509.00;;;6.10
20848;BMP180;10584;50.854;12.902;2023-01-06T00:27:31;98509.00;;;6.00
20848;BMP180;10584;50.854;12.902;2023-01-06T00:32:52;98501.00;;;6.10
20848;BMP180;10584;50.854;12.902;2023-01-06T00:38:13;98498.00;;;6.10
20848;BMP180;10584;50.854;12.902;2023-01-06T00:43:35;98497.00;;;6.10
20848;BMP180;10584;50.854;12.902;2023-01-06T00:48:58;98506.00;;;6.10
20848;BMP180;10584;50.854;12.902;2023-01-06T00:54:27;98504.00;;;6.10
20848;BMP180;10584;50.854;12.902;2023-01-06T00:59:48;98493.00;;;6.20
20848;BMP180;10584;50.854;12.902;2023-01-06T01:05:10;98485.00;;;6.30
20848;BMP180;10584;50.854;12.902;2023-01-06T01:10:32;98497.00;;;6.30
20848;BMP180;10584;50.854;12.902;2023-01-06T01:15:54;98491.00;;;6.30
20848;BMP180;10584;50.854;12.902;2023-01-06T01:21:15;98489.00;;;6.30
20848;BMP180;10584;50.854;12.902;2023-01-06T01:26:37;98494.00;;;6.40
20848;BMP180;10584;50.854;12.902;2023-01-06T01:31:59;98492.00;;;6.40
20848;BMP180;10584;50.854;12.902;2023-01-06T01:37:21;98489.00;;;6.40
20848;BMP180;10584;50.854;12.902;2023-01-06T01:42:42;98497.00;;;6.50
20848;BMP180;10584;50.854;12.902;2023-01-06T01:54:04;98493.00;;;6.70
20848;BMP180;10584;50.854;12.902;2023-01-06T01:59:30;98485.00;;;6.70
20848;BMP180;10584;50.854;12.902;2023-01-06T02:04:53;98481.00;;;6.70
20848;BMP180;10584;50.854;12.902;2023-01-06T02:10:20;98488.00;;;6.70
20848;BMP180;10584;50.854;12.902;2023-01-06T02:15:43;98470.00;;;6.70
20848;BMP180;10584;50.854;12.902;2023-01-06T02:21:19;98466.00;;;6.70
20848;BMP180;10584;50.854;12.902;2023-01-06T02:32:44;98458.00;;;6.70
20848;BMP180;10584;50.854;12.902;2023-01-06T02:44:26;98439.00;;;6.90
20848;BMP180;10584;50.854;12.902;2023-01-06T02:55:54;98426.00;;;7.00
20848;BMP180;10584;50.854;12.902;2023-01-06T03:01:41;98413.00;;;6.90
20848;BMP180;10584;50.854;12.902;2023-01-06T03:07:06;98410.00;;;7.10
20848;BMP180;10584;50.854;12.902;2023-01-06T03:13:03;98417.00;;;7.10
20848;BMP180;10584;50.854;12.902;2023-01-06T03:18:26;98400.00;;;7.10
20848;BMP180;10584;50.854;12.902;2023-01-06T03:23:48;98405.00;;;7.20
20848;BMP180;10584;50.854;12.902;2023-01-06T03:29:12;98395.00;;;7.20
20848;BMP180;10584;50.854;12.902;2023-01-06T03:52:02;98380.00;;;7.40
20848;BMP180;10584;50.854;12.902;2023-01-06T04:02:53;98371.00;;;7.40
20848;BMP180;10584;50.854;12.902;2023-01-06T04:08:17;98366.00;;;7.50
20848;BMP180;10584;50.854;12.902;2023-01-06T04:13:38;98356.00;;;7.50
20848;BMP180;10584;50.854;12.902;2023-01-06T04:18:59;98356.00;;;7.60
20848;BMP180;10584;50.854;12.902;2023-01-06T04:24:21;98360.00;;;7.60
20848;BMP180;10584;50.854;12.902;2023-01-06T04:29:42;98346.00;;;7.70
20848;BMP180;10584;50.854;12.902;2023-01-06T04:35:05;98335.00;;;7.70
20848;BMP180;10584;50.854;12.902;2023-01-06T04:40:27;98344.00;;;7.70
20848;BMP180;10584;50.854;12.902;2023-01-06T04:45:48;98336.00;;;7.70
20848;BMP180;10584;50.854;12.902;2023-01-06T04:51:13;98349.00;;;7.70
20848;BMP180;10584;50.854;12.902;2023-01-06T04:56:35;98343.00;;;7.70
20848;BMP180;10584;50.854;12.902;2023-01-06T05:01:57;98341.00;;;7.70
20848;BMP180;10584;50.854;12.902;2023-01-06T05:07:18;98338.00;;;7.70
20848;BMP180;10584;50.854;12.902;2023-01-06T05:12:39;98338.00;;;7.90
20848;BMP180;10584;50.854;12.902;2023-01-06T05:18:01;98324.00;;;7.90
20848;BMP180;10584;50.854;12.902;2023-01-06T05:23:22;98324.00;;;7.90
20848;BMP180;10584;50.854;12.902;2023-01-06T05:28:44;98323.00;;;8.00
20848;BMP180;10584;50.854;12.902;2023-01-06T05:34:06;98314.00;;;7.90
20848;BMP180;10584;50.854;12.902;2023-01-06T05:39:27;98318.00;;;8.00
20848;BMP180;10584;50.854;12.902;2023-01-06T05:44:48;98320.00;;;8.00
20848;BMP180;10584;50.854;12.902;2023-01-06T05:50:10;98306.00;;;8.00
20848;BMP180;10584;50.854;12.902;2023-01-06T05:55:31;98299.00;;;8.10
20848;BMP180;10584;50.854;12.902;2023-01-06T06:00:52;98296.00;;;8.10
20848;BMP180;10584;50.854;12.902;2023-01-06T06:06:15;98302.00;;;8.10
20848;BMP180;10584;50.854;12.902;2023-01-06T06:11:36;98295.00;;;8.10
20848;BMP180;10584;50.854;12.902;2023-01-06T06:16:58;98299.00;;;8.10
20848;BMP180;10584;50.854;12.902;2023-01-06T06:22:19;98291.00;;;8.20
20848;BMP180;10584;50.854;12.902;2023-01-06T06:27:41;98288.00;;;8.20
20848;BMP180;10584;50.854;12.902;2023-01-06T06:33:03;98286.00;;;8.30
20848;BMP180;10584;50.854;12.902;2023-01-06T06:38:24;98290.00;;;8.30
20848;BMP180;10584;50.854;12.902;2023-01-06T06:43:48;98300.00;;;8.30
20848;BMP180;10584;50.854;12.902;2023-01-06T06:49:10;98305.00;;;8.40
20848;BMP180;10584;50.854;12.902;2023-01-06T06:54:31;98302.00;;;8.50
20848;BMP180;10584;50.854;12.902;2023-01-06T06:59:53;98289.00;;;8.50
20848;BMP180;10584;50.854;12.902;2023-01-06T07:05:18;98294.00;;;8.50
20848;BMP180;10584;50.854;12.902;2023-01-06T07:10:40;98310.00;;;8.60
20848;BMP180;10584;50.854;12.902;2023-01-06T07:16:01;98299.00;;;8.60
20848;BMP180;10584;50.854;12.902;2023-01-06T07:21:23;98283.00;;;8.60
20848;BMP180;10584;50.854;12.902;2023-01-06T07:26:44;98282.00;;;8.60
20848;BMP180;10584;50.854;12.902;2023-01-06T07:32:06;98294.00;;;8.60
20848;BMP180;10584;50.854;12.902;2023-01-06T07:37:30;98271.00;;;8.70
20848;BMP180;10584;50.854;12.902;2023-01-06T07:42:51;98274.00;;;8.60
20848;BMP180;10584;50.854;12.902;2023-01-06T07:48:13;98261.00;;;8.70
20848;BMP180;10584;50.854;12.902;2023-01-06T07:53:35;98260.00;;;8.80
20848;BMP180;10584;50.854;12.902;2023-01-06T07:58:56;98264.00;;;8.80
20848;BMP180;10584;50.854;12.902;2023-01-06T08:04:18;98266.00;;;8.80
20848;BMP180;10584;50.854;12.902;2023-01-06T08:09:39;98278.00;;;8.90
20848;BMP180;10584;50.854;12.902;2023-01-06T08:15:01;98266.00;;;9.10
20848;BMP180;10584;50.854;12.902;2023-01-06T08:20:22;98257.00;;;9.10
20848;BMP180;10584;50.854;12.902;2023-01-06T08:25:44;98262.00;;;9.20
20848;BMP180;10584;50.854;12.902;2023-01-06T08:31:11;98266.00;;;9.20
20848;BMP180;10584;50.854;12.902;2023-01-06T08:36:33;98264.00;;;9.20
20848;BMP180;10584;50.854;12.902;2023-01-06T08:41:55;98275.00;;;9.30
20848;BMP180;10584;50.854;12.902;2023-01-06T08:47:19;98273.00;;;9.40
20848;BMP180;10584;50.854;12.902;2023-01-06T08:52:41;98280.00;;;9.40
20848;BMP180;10584;50.854;12.902;2023-01-06T08:58:02;98272.00;;;9.50
20848;BMP180;10584;50.854;12.902;2023-01-06T09:03:24;98279.00;;;9.60
20848;BMP180;10584;50.854;12.902;2023-01-06T09:08:45;98290.00;;;9.70
20848;BMP180;10584;50.854;12.902;2023-01-06T09:14:10;98291.00;;;9.70
20848;BMP180;10584;50.854;12.902;2023-01-06T09:19:31;98301.00;;;9.80
20848;BMP180;10584;50.854;12.902;2023-01-06T09:24:53;98299.00;;;9.90
20848;BMP180;10584;50.854;12.902;2023-01-06T09:30:14;98297.00;;;10.10
20848;BMP180;10584;50.854;12.902;2023-01-06T09:35:36;98299.00;;;10.20
20848;BMP180;10584;50.854;12.902;2023-01-06T09:46:35;98291.00;;;10.10
20848;BMP180;10584;50.854;12.902;2023-01-06T09:52:01;98306.00;;;10.30
20848;BMP180;10584;50.854;12.902;2023-01-06T09:57:54;98291.00;;;10.40
20848;BMP180;10584;50.854;12.902;2023-01-06T10:03:21;98281.00;;;10.40
20848;BMP180;10584;50.854;12.902;2023-01-06T10:20:52;98262.00;;;10.40
20848;BMP180;10584;50.854;12.902;2023-01-06T10:31:46;98256.00;;;10.30
20848;BMP180;10584;50.854;12.902;2023-01-06T10:37:28;98239.00;;;10.20
20848;BMP180;10584;50.854;12.902;2023-01-06T10:43:13;98230.00;;;10.40
20848;BMP180;10584;50.854;12.902;2023-01-06T10:48:34;98228.00;;;10.50
20848;BMP180;10584;50.854;12.902;2023-01-06T10:53:57;98224.00;;;10.40
20848;BMP180;10584;50.854;12.902;2023-01-06T10:59:21;98226.00;;;10.50
20848;BMP180;10584;50.854;12.902;2023-01-06T11:04:50;98217.00;;;10.50
20848;BMP180;10584;50.854;12.902;2023-01-06T11:10:23;98217.00;;;10.50
20848;BMP180;10584;50.854;12.902;2023-01-06T11:15:46;98220.00;;;10.60
20848;BMP180;10584;50.854;12.902;2023-01-06T11:21:12;98209.00;;;10.70
20848;BMP180;10584;50.854;12.902;2023-01-06T11:26:45;98216.00;;;10.60
20848;BMP180;10584;50.854;12.902;2023-01-06T11:32:17;98223.00;;;10.70
20848;BMP180;10584;50.854;12.902;2023-01-06T11:37:41;98203.00;;;10.60
20848;BMP180;10584;50.854;12.902;2023-01-06T11:43:11;98215.00;;;10.60
20848;BMP180;10584;50.854;12.902;2023-01-06T11:48:35;98197.00;;;10.60
20848;BMP180;10584;50.854;12.902;2023-01-06T11:53:57;98202.00;;;10.60
20848;BMP180;10584;50.854;12.902;2023-01-06T11:59:18;98192.00;;;10.60
20848;BMP180;10584;50.854;12.902;2023-01-06T12:04:49;98195.00;;;10.40
20848;BMP180;10584;50.854;12.902;2023-01-06T12:10:19;98196.00;;;10.40
20848;BMP180;10584;50.854;12.902;2023-01-06T12:15:45;98206.00;;;10.40
20848;BMP180;10584;50.854;12.902;2023-01-06T12:21:15;98206.00;;;10.30
20848;BMP180;10584;50.854;12.902;2023-01-06T12:26:40;98201.00;;;10.40
20848;BMP180;10584;50.854;12.902;2023-01-06T12:32:21;98229.00;;;10.20
20848;BMP180;10584;50.854;12.902;2023-01-06T12:37:52;98225.00;;;10.20
20848;BMP180;10584;50.854;12.902;2023-01-06T12:43:26;98227.00;;;10.20
20848;BMP180;10584;50.854;12.902;2023-01-06T12:48:53;98241.00;;;10.20
20848;BMP180;10584;50.854;12.902;2023-01-06T12:54:19;98242.00;;;10.20
20848;BMP180;10584;50.854;12.902;2023-01-06T12:59:51;98237.00;;;10.10
20848;BMP180;10584;50.854;12.902;2023-01-06T13:05:26;98235.00;;;9.90
20848;BMP180;10584;50.854;12.902;2023-01-06T13:11:00;98233.00;;;10.00
20848;BMP180;10584;50.854;12.902;2023-01-06T13:17:11;98240.00;;;10.00
20848;BMP180;10584;50.854;12.902;2023-01-06T13:22:07;98249.00;;;10.00
20848;BMP180;10584;50.854;12.902;2023-01-06T13:27:38;98241.00;;;10.10
20848;BMP180;10584;50.854;12.902;2023-01-06T13:33:16;98228.00;;;10.10
20848;BMP180;10584;50.854;12.902;2023-01-06T13:44:20;98221.00;;;10.30
20848;BMP180;10584;50.854;12.902;2023-01-06T13:49:42;98229.00;;;10.30
20848;BMP180;10584;50.854;12.902;2023-01-06T13:55:20;98214.00;;;10.20
20848;BMP180;10584;50.854;12.902;2023-01-06T14:00:42;98219.00;;;10.30
20848;BMP180;10584;50.854;12.902;2023-01-06T14:06:55;98217.00;;;10.20
20848;BMP180;10584;50.854;12.902;2023-01-06T14:11:51;98213.00;;;10.10
20848;BMP180;10584;50.854;12.902;2023-01-06T14:17:37;98227.00;;;10.10
20848;BMP180;10584;50.854;12.902;2023-01-06T14:23:00;98231.00;;;10.00
20848;BMP180;10584;50.854;12.902;2023-01-06T14:28:28;98242.00;;;10.10
20848;BMP180;10584;50.854;12.902;2023-01-06T14:33:55;98237.00;;;10.00
20848;BMP180;10584;50.854;12.902;2023-01-06T14:39:21;98253.00;;;10.10
20848;BMP180;10584;50.854;12.902;2023-01-06T14:44:46;98270.00;;;10.10
20848;BMP180;10584;50.854;12.902;2023-01-06T14:50:15;98274.00;;;10.20
20848;BMP180;10584;50.854;12.902;2023-01-06T14:55:39;98271.00;;;10.20
20848;BMP180;10584;50.854;12.902;2023-01-06T15:01:05;98275.00;;;10.10
20848;BMP180;10584;50.854;12.902;2023-01-06T15:06:30;98278.00;;;9.90
20848;BMP180;10584;50.854;12.902;2023-01-06T15:11:51;98267.00;;;10.00
20848;BMP180;10584;50.854;12.902;2023-01-06T15:17:13;98268.00;;;9.90
20848;BMP180;10584;50.854;12.902;2023-01-06T15:22:37;98284.00;;;9.80
20848;BMP180;10584;50.854;12.902;2023-01-06T15:27:59;98272.00;;;9.70
20848;BMP180;10584;50.854;12.902;2023-01-06T15:33:23;98285.00;;;9.80
20848;BMP180;10584;50.854;12.902;2023-01-06T15:38:46;98297.00;;;9.80
20848;BMP180;10584;50.854;12.902;2023-01-06T15:44:34;98317.00;;;9.90
20848;BMP180;10584;50.854;12.902;2023-01-06T15:49:57;98319.00;;;9.80
20848;BMP180;10584;50.854;12.902;2023-01-06T15:55:32;98324.00;;;9.60
20848;BMP180;10584;50.854;12.902;2023-01-06T16:01:12;98333.00;;;9.40
20848;BMP180;10584;50.854;12.902;2023-01-06T16:06:37;98319.00;;;9.30
20848;BMP180;10584;50.854;12.902;2023-01-06T16:17:28;98332.00;;;9.10
20848;BMP180;10584;50.854;12.902;2023-01-06T16:22:57;98332.00;;;9.10
20848;BMP180;10584;50.854;12.902;2023-01-06T16:28:20;98341.00;;;9.20
20848;BMP180;10584;50.854;12.902;2023-01-06T16:33:43;98349.00;;;9.10
20848;BMP180;10584;50.854;12.902;2023-01-06T16:39:08;98347.00;;;9.10
20848;BMP180;10584;50.854;12.902;2023-01-06T16:44:30;98347.00;;;9.10
20848;BMP180;10584;50.854;12.902;2023-01-06T16:49:53;98353.00;;;9.10
20848;BMP180;10584;50.854;12.902;2023-01-06T16:55:15;98348.00;;;9.00
20848;BMP180;10584;50.854;12.902;2023-01-06T17:00:39;98347.00;;;9.00
20848;BMP180;10584;50.854;12.902;2023-01-06T17:06:01;98351.00;;;9.10
20848;BMP180;10584;50.854;12.902;2023-01-06T17:11:25;98348.00;;;9.00
20848;BMP180;10584;50.854;12.902;2023-01-06T17:16:47;98362.00;;;9.00
20848;BMP180;10584;50.854;12.902;2023-01-06T17:22:29;98364.00;;;9.00
20848;BMP180;10584;50.854;12.902;2023-01-06T17:27:50;98359.00;;;9.00
20848;BMP180;10584;50.854;12.902;2023-01-06T17:33:14;98364.00;;;8.90
20848;BMP180;10584;50.854;12.902;2023-01-06T17:38:36;98378.00;;;8.90
20848;BMP180;10584;50.854;12.902;2023-01-06T17:43:59;98381.00;;;8.90
20848;BMP180;10584;50.854;12.902;2023-01-06T17:54:50;98377.00;;;8.90
20848;BMP180;10584;50.854;12.902;2023-01-06T18:00:33;98381.00;;;8.70
20848;BMP180;10584;50.854;12.902;2023-01-06T18:06:31;98395.00;;;8.70
20848;BMP180;10584;50.854;12.902;2023-01-06T18:12:00;98410.00;;;8.70
20848;BMP180;10584;50.854;12.902;2023-01-06T18:17:26;98401.00;;;8.80
20848;BMP180;10584;50.854;12.902;2023-01-06T18:22:49;98414.00;;;8.80
20848;BMP180;10584;50.854;12.902;2023-01-06T18:28:17;98416.00;;;8.70
20848;BMP180;10584;50.854;12.902;2023-01-06T18:33:39;98410.00;;;8.70
20848;BMP180;10584;50.854;12.902;2023-01-06T18:39:01;98417.00;;;8.80
20848;BMP180;10584;50.854;12.902;2023-01-06T18:44:22;98427.00;;;8.70
20848;BMP180;10584;50.854;12.902;2023-01-06T18:49:45;98423.00;;;8.70
20848;BMP180;10584;50.854;12.902;2023-01-06T18:56:08;98422.00;;;8.60
20848;BMP180;10584;50.854;12.902;2023-01-06T19:01:01;98439.00;;;8.60
20848;BMP180;10584;50.854;12.902;2023-01-06T19:06:45;98442.00;;;8.70
20848;BMP180;10584;50.854;12.902;2023-01-06T19:17:35;98434.00;;;8.60
20848;BMP180;10584;50.854;12.902;2023-01-06T19:22:58;98437.00;;;8.50
20848;BMP180;10584;50.854;12.902;2023-01-06T19:28:22;98444.00;;;8.40
20848;BMP180;10584;50.854;12.902;2023-01-06T19:33:58;98453.00;;;8.40
20848;BMP180;10584;50.854;12.902;2023-01-06T19:44:47;98445.00;;;8.30
20848;BMP180;10584;50.854;12.902;2023-01-06T19:50:19;98446.00;;;8.40
20848;BMP180;10584;50.854;12.902;2023-01-06T19:55:41;98429.00;;;8.30
20848;BMP180;10584;50.854;12.902;2023-01-06T20:01:03;98424.00;;;8.00
20848;BMP180;10584;50.854;12.902;2023-01-06T20:06:24;98435.00;;;8.10
20848;BMP180;10584;50.854;12.902;2023-01-06T20:11:46;98442.00;;;8.00
20848;BMP180;10584;50.854;12.902;2023-01-06T20:17:08;98437.00;;;8.00
20848;BMP180;10584;50.854;12.902;2023-01-06T20:22:30;98446.00;;;8.10
20848;BMP180;10584;50.854;12.902;2023-01-06T20:27:51;98451.00;;;8.00
20848;BMP180;10584;50.854;12.902;2023-01-06T20:33:13;98448.00;;;8.00
20848;BMP180;10584;50.854;12.902;2023-01-06T20:38:35;98442.00;;;8.10
20848;BMP180;10584;50.854;12.902;2023-01-06T20:43:56;98442.00;;;8.20
20848;BMP180;10584;50.854;12.902;2023-01-06T20:49:18;98450.00;;;8.10
20848;BMP180;10584;50.854;12.902;2023-01-06T20:54:40;98448.00;;;8.10
20848;BMP180;10584;50.854;12.902;2023-01-06T21:00:03;98445.00;;;8.10
20848;BMP180;10584;50.854;12.902;2023-01-06T21:05:24;98460.00;;;8.20
20848;BMP180;10584;50.854;12.902;2023-01-06T21:10:46;98471.00;;;8.20
20848;BMP180;10584;50.854;12.902;2023-01-06T21:16:08;98458.00;;;8.30
20848;BMP180;10584;50.854;12.902;2023-01-06T21:21:29;98455.00;;;8.20
20848;BMP180;10584;50.854;12.902;2023-01-06T21:26:51;98459.00;;;8.30
20848;BMP180;10584;50.854;12.902;2023-01-06T21:32:12;98453.00;;;8.50
20848;BMP180;10584;50.854;12.902;2023-01-06T21:37:34;98458.00;;;8.40
20848;BMP180;10584;50.854;12.902;2023-01-06T21:42:55;98472.00;;;8.50
20848;BMP180;10584;50.854;12.902;2023-01-06T21:48:29;98465.00;;;8.50
20848;BMP180;10584;50.854;12.902;2023-01-06T21:53:50;98464.00;;;8.40
20848;BMP180;10584;50.854;12.902;2023-01-06T21:59:12;98460.00;;;8.40
20848;BMP180;10584;50.854;12.902;2023-01-06T22:04:33;98457.00;;;8.40
20848;BMP180;10584;50.854;12.902;2023-01-06T22:09:56;98457.00;;;8.30
20848;BMP180;10584;50.854;12.902;2023-01-06T22:15:19;98455.00;;;8.30
20848;BMP180;10584;50.854;12.902;2023-01-06T22:20:41;98456.00;;;8.30
20848;BMP180;10584;50.854;12.902;2023-01-06T22:26:02;98463.00;;;8.20
20848;BMP180;10584;50.854;12.902;2023-01-06T22:31:24;98463.00;;;8.30
20848;BMP180;10584;50.854;12.902;2023-01-06T22:36:46;98452.00;;;8.30
20848;BMP180;10584;50.854;12.902;2023-01-06T22:42:08;98456.00;;;8.30
20848;BMP180;10584;50.854;12.902;2023-01-06T22:47:30;98463.00;;;8.30
20848;BMP180;10584;50.854;12.902;2023-01-06T22:52:52;98457.00;;;8.30
20848;BMP180;10584;50.854;12.902;2023-01-06T22:58:13;98476.00;;;8.40
20848;BMP180;10584;50.854;12.902;2023-01-06T23:03:38;98471.00;;;8.50
20848;BMP180;10584;50.854;12.902;2023-01-06T23:08:59;98470.00;;;8.50
20848;BMP180;10584;50.854;12.902;2023-01-06T23:14:22;98458.00;;;8.40
20848;BMP180;10584;50.854;12.902;2023-01-06T23:19:43;98469.00;;;8.40
20848;BMP180;10584;50.854;12.902;2023-01-06T23:25:04;98456.00;;;8.50
20848;BMP180;10584;50.854;12.902;2023-01-06T23:30:26;98466.00;;;8.60
20848;BMP180;10584;50.854;12.902;2023-01-06T23:35:48;98453.00;;;8.50
20848;BMP180;10584;50.854;12.902;2023-01-06T23:41:15;98455.00;;;8.50
20848;BMP180;10584;50.854;12.902;2023-01-06T23:46:38;98443.00;;;8.60
20848;BMP180;10584;50.854;12.902;2023-01-06T23:52:00;98446.00;;;8.50
20848;BMP180;10584;50.854;12.902;2023-01-06T23:57:22;98442.00;;;8.50
